Time;durP1;ratioP1;P1;durP2;ratioP2;P2;SDS_P1;SDS_P2;PMS_P1;PMS_P2;Temp;Humidity;BMP_temperature;BMP_pressure;BME280_temperature;BME280_humidity;BME280_pressure;Samples;Min_cycle;Max_cycle;Signal;HPM_P1;HPM_P2
2022/09/18 00:02:02;;;;;;;6.68;3.30;;;;;;;22.09;68.49;98315.78;5114129;28;20012;-45
2022/09/18 00:04:28;;;;;;;4.13;2.88;;;;;;;22.21;68.17;98317.88;5113876;28;20447;-46
2022/09/18 00:06:53;;;;;;;8.35;5.03;;;;;;;22.00;68.67;98306.81;5113887;27;20025;-47
2022/09/18 00:09:19;;;;;;;7.38;3.97;;;;;;;22.03;68.86;98312.41;5113162;28;20011;-47
2022/09/18 00:11:46;;;;;;;7.75;5.18;;;;;;;22.00;69.21;98325.78;5113932;28;20072;-45
2022/09/18 00:14:17;;;;;;;6.25;4.00;;;;;;;22.06;68.81;98324.53;5113300;28;20092;-49
2022/09/18 00:16:42;;;;;;;8.88;4.20;;;;;;;22.14;68.27;98315.66;5113493;28;20402;-48
2022/09/18 00:19:08;;;;;;;8.00;5.35;;;;;;;22.02;68.46;98326.25;5113406;28;20081;-46
2022/09/18 00:21:36;;;;;;;11.63;8.60;;;;;;;21.82;69.36;98317.59;5113391;28;20077;-46
2022/09/18 00:24:03;;;;;;;13.38;8.65;;;;;;;21.91;69.17;98325.72;5113438;28;20440;-46
2022/09/18 00:26:29;;;;;;;9.65;5.00;;;;;;;21.94;69.20;98325.13;5113487;28;20024;-48
2022/09/18 00:28:56;;;;;;;8.35;3.72;;;;;;;22.00;69.18;98314.94;5113438;28;20114;-48
2022/09/18 00:31:28;;;;;;;7.88;4.22;;;;;;;21.97;68.98;98302.84;5113163;28;20106;-47
2022/09/18 00:33:58;;;;;;;5.82;4.13;;;;;;;22.00;68.69;98290.56;5113264;28;20024;-45
2022/09/18 00:36:24;;;;;;;8.15;4.32;;;;;;;22.05;68.16;98282.31;5113150;28;20043;-46
2022/09/18 00:38:49;;;;;;;7.72;4.20;;;;;;;22.15;68.02;98297.47;5113385;28;20523;-45
2022/09/18 00:41:28;;;;;;;8.27;4.43;;;;;;;22.00;68.68;98304.91;5113794;28;20027;-46
2022/09/18 00:44:15;;;;;;;7.45;4.68;;;;;;;21.84;69.21;98311.88;5113763;28;20050;-47
2022/09/18 00:46:44;;;;;;;8.15;4.88;;;;;;;21.88;69.33;98314.75;5113368;28;20047;-45
2022/09/18 00:49:24;;;;;;;5.93;4.40;;;;;;;21.96;69.18;98333.72;5113286;28;20095;-45
2022/09/18 00:51:53;;;;;;;9.48;5.00;;;;;;;21.96;69.03;98325.59;5113276;28;20389;-46
2022/09/18 00:54:23;;;;;;;12.57;5.70;;;;;;;21.94;69.21;98324.31;5113949;28;20031;-45
2022/09/18 00:56:51;;;;;;;8.73;5.70;;;;;;;21.83;69.00;98308.34;5113941;28;20034;-44
2022/09/18 00:59:29;;;;;;;12.00;5.47;;;;;;;21.98;68.86;98328.00;5113608;28;20016;-45
2022/09/18 01:01:55;;;;;;;16.90;12.02;;;;;;;22.01;68.46;98327.38;5112876;28;20564;-47
2022/09/18 01:04:21;;;;;;;12.45;8.07;;;;;;;21.91;68.69;98314.13;5112571;28;20023;-45
2022/09/18 01:06:57;;;;;;;13.30;6.85;;;;;;;21.63;69.82;98330.56;5113208;28;20092;-44
2022/09/18 01:09:47;;;;;;;9.30;5.90;;;;;;;21.63;70.37;98331.34;5113071;28;20077;-45
2022/09/18 01:12:44;;;;;;;10.00;6.93;;;;;;;21.73;69.77;98322.16;5112633;28;20035;-45
2022/09/18 01:15:28;;;;;;;12.88;9.75;;;;;;;21.58;70.35;98334.19;5112717;28;20030;-47
2022/09/18 01:18:14;;;;;;;9.70;7.05;;;;;;;21.34;71.38;98333.69;5112874;28;20669;-43
2022/09/18 01:20:48;;;;;;;10.50;6.43;;;;;;;20.89;72.73;98340.69;5113023;28;20402;-44
2022/09/18 01:23:39;;;;;;;10.27;6.60;;;;;;;20.17;75.42;98335.97;5112361;28;20020;-43
2022/09/18 01:26:45;;;;;;;20.02;15.65;;;;;;;20.19;75.83;98333.78;5113131;28;20055;-44
2022/09/18 01:29:43;;;;;;;10.27;6.90;;;;;;;20.02;76.28;98331.69;5072105;28;20032;-44
2022/09/18 01:32:24;;;;;;;9.80;6.85;;;;;;;19.85;77.83;98334.97;5112894;28;20023;-44
2022/09/18 01:34:55;;;;;;;12.95;7.05;;;;;;;19.83;78.40;98325.56;5112533;28;20410;-46
2022/09/18 01:37:27;;;;;;;8.93;7.18;;;;;;;19.90;78.21;98332.19;5112542;28;20024;-44
2022/09/18 01:39:59;;;;;;;14.00;7.68;;;;;;;19.56;79.60;98329.00;5112819;28;20399;-44
2022/09/18 01:42:28;;;;;;;17.10;7.80;;;;;;;19.51;80.25;98330.72;5112855;28;20019;-44
2022/09/18 01:44:57;;;;;;;13.98;7.80;;;;;;;19.70;79.87;98332.53;5112667;28;20032;-44
2022/09/18 01:47:27;;;;;;;11.38;8.20;;;;;;;19.89;79.22;98335.97;5112752;28;20016;-44
2022/09/18 01:49:56;;;;;;;12.77;9.10;;;;;;;19.86;79.43;98341.19;5112763;28;20173;-45
2022/09/18 01:52:27;;;;;;;19.08;9.60;;;;;;;19.99;78.85;98355.78;5112326;28;20023;-44
2022/09/18 01:54:55;;;;;;;14.45;8.88;;;;;;;20.19;78.12;98366.19;5112557;27;20046;-44
2022/09/18 01:57:31;;;;;;;15.13;9.55;;;;;;;20.41;77.27;98361.97;5112142;28;20072;-45
2022/09/18 02:00:03;;;;;;;13.40;9.02;;;;;;;20.39;77.72;98364.16;5112410;28;20080;-45
2022/09/18 02:02:36;;;;;;;14.68;9.07;;;;;;;20.60;76.83;98354.59;5111959;28;20039;-45
2022/09/18 02:05:06;;;;;;;15.82;9.90;;;;;;;20.88;75.58;98344.47;5112050;28;20135;-46
2022/09/18 02:08:06;;;;;;;18.17;10.10;;;;;;;20.79;76.39;98340.09;5111871;28;20018;-45
2022/09/18 02:10:35;;;;;;;15.35;10.10;;;;;;;20.89;75.68;98339.91;5108758;28;20062;-44
2022/09/18 02:13:02;;;;;;;14.93;9.77;;;;;;;21.06;74.81;98340.03;5111855;28;20427;-46
2022/09/18 02:15:31;;;;;;;17.40;11.07;;;;;;;21.02;74.40;98344.47;5111856;28;20472;-47
2022/09/18 02:18:05;;;;;;;15.77;10.05;;;;;;;21.07;74.37;98338.13;5111360;28;20040;-45
2022/09/18 02:20:33;;;;;;;14.73;9.60;;;;;;;21.23;73.96;98344.78;5111777;28;20034;-45
2022/09/18 02:23:04;;;;;;;14.63;10.25;;;;;;;21.16;74.36;98347.09;5111104;28;20095;-44
2022/09/18 02:25:37;;;;;;;19.10;10.20;;;;;;;21.28;73.83;98349.25;5111872;28;20024;-45
2022/09/18 02:28:06;;;;;;;16.38;9.95;;;;;;;21.40;72.85;98340.56;5111147;28;20455;-46
2022/09/18 02:30:32;;;;;;;15.40;10.63;;;;;;;21.41;72.95;98344.88;5111626;28;20087;-44
2022/09/18 02:32:58;;;;;;;15.80;10.80;;;;;;;21.30;73.00;98352.44;5111551;28;20030;-46
2022/09/18 02:35:34;;;;;;;16.05;10.27;;;;;;;21.43;72.78;98346.16;5111503;28;20023;-45
2022/09/18 02:38:10;;;;;;;13.50;9.85;;;;;;;21.52;72.21;98353.59;5108653;28;20486;-45
2022/09/18 02:40:37;;;;;;;15.35;10.07;;;;;;;21.51;71.87;98354.69;5111775;28;20027;-45
2022/09/18 02:43:15;;;;;;;13.77;10.00;;;;;;;21.44;72.53;98377.56;5111319;28;20039;-45
2022/09/18 02:46:19;;;;;;;15.55;10.48;;;;;;;21.55;71.71;98366.47;5111295;28;20019;-45
2022/09/18 02:49:29;;;;;;;15.90;10.57;;;;;;;21.40;72.83;98391.97;5111289;28;20251;-47
2022/09/18 02:52:02;;;;;;;17.33;11.45;;;;;;;21.16;73.45;98397.69;5111523;28;20033;-45
2022/09/18 02:54:39;;;;;;;16.33;11.80;;;;;;;20.69;75.68;98411.41;5111081;28;20495;-49
2022/09/18 02:57:14;;;;;;;15.93;11.60;;;;;;;20.81;74.98;98409.00;5111126;28;20069;-44
2022/09/18 02:59:50;;;;;;;17.60;11.63;;;;;;;20.98;74.34;98431.88;5110927;28;20024;-45
2022/09/18 03:02:16;;;;;;;17.23;12.02;;;;;;;21.06;73.92;98434.69;5111137;28;20487;-46
2022/09/18 03:04:41;;;;;;;16.05;10.82;;;;;;;21.22;73.19;98448.66;5111529;28;20030;-46
2022/09/18 03:07:07;;;;;;;16.58;11.73;;;;;;;21.21;73.27;98448.94;5110944;28;20106;-45
2022/09/18 03:09:33;;;;;;;19.52;11.90;;;;;;;20.46;76.36;98451.03;5111190;28;20020;-45
2022/09/18 03:12:00;;;;;;;19.25;12.18;;;;;;;20.55;76.45;98456.56;5110630;28;20035;-46
2022/09/18 03:14:26;;;;;;;17.30;12.52;;;;;;;20.34;78.04;98465.03;5111311;28;20062;-46
2022/09/18 03:16:52;;;;;;;17.95;11.52;;;;;;;19.97;80.28;98477.59;5111022;28;20107;-45
2022/09/18 03:19:17;;;;;;;14.95;10.70;;;;;;;19.90;81.43;98480.66;5111012;28;20043;-45
2022/09/18 03:21:42;;;;;;;16.85;11.20;;;;;;;20.13;80.55;98488.13;5110713;28;20127;-45
2022/09/18 03:24:08;;;;;;;12.52;9.52;;;;;;;20.25;79.56;98500.03;5111024;28;20106;-48
2022/09/18 03:26:33;;;;;;;12.23;9.25;;;;;;;19.95;80.64;98497.84;5110904;28;20027;-47
2022/09/18 03:28:59;;;;;;;13.52;9.00;;;;;;;19.66;82.59;98523.09;5111342;28;20114;-45
2022/09/18 03:31:24;;;;;;;14.32;9.27;;;;;;;19.66;82.40;98515.81;5110859;28;20019;-45
2022/09/18 03:33:49;;;;;;;13.60;9.23;;;;;;;19.06;84.55;98520.97;5111618;28;20363;-46
2022/09/18 03:36:15;;;;;;;10.80;8.38;;;;;;;19.14;83.61;98529.19;5115201;28;20118;-44
2022/09/18 03:38:41;;;;;;;10.18;7.18;;;;;;;19.00;82.75;98533.72;5114904;28;20076;-44
2022/09/18 03:41:07;;;;;;;10.10;6.32;;;;;;;18.74;82.22;98531.25;5115179;28;20023;-44
2022/09/18 03:43:33;;;;;;;7.47;5.50;;;;;;;18.91;80.70;98546.22;5114285;28;20115;-44
2022/09/18 03:45:59;;;;;;;7.68;4.40;;;;;;;18.60;80.59;98560.00;5114932;28;20020;-46
2022/09/18 03:48:24;;;;;;;4.75;3.80;;;;;;;18.52;79.22;98547.94;5114515;28;20522;-45
2022/09/18 03:50:50;;;;;;;9.63;3.47;;;;;;;18.29;80.50;98571.03;5114683;28;20104;-45
2022/09/18 03:53:16;;;;;;;4.53;3.30;;;;;;;18.53;79.86;98565.69;5113923;28;20410;-45
2022/09/18 03:55:41;;;;;;;4.55;3.17;;;;;;;18.42;80.25;98574.97;5114570;28;20502;-45
2022/09/18 03:58:06;;;;;;;5.70;3.47;;;;;;;18.08;81.83;98572.28;5113772;28;20034;-44
2022/09/18 04:00:32;;;;;;;8.20;3.60;;;;;;;17.87;84.52;98596.66;5114614;28;20085;-45
2022/09/18 04:02:58;;;;;;;6.82;3.47;;;;;;;17.95;83.89;98589.88;5114258;28;20110;-46
2022/09/18 04:05:23;;;;;;;3.58;3.20;;;;;;;18.28;81.76;98609.03;5114090;28;20508;-44
2022/09/18 04:07:49;;;;;;;5.40;3.05;;;;;;;18.36;80.16;98621.88;5114608;28;20072;-44
2022/09/18 04:10:14;;;;;;;3.88;2.50;;;;;;;17.54;78.14;98625.88;5114071;28;20027;-46
2022/09/18 04:12:43;;;;;;;2.50;2.13;;;;;;;17.18;77.55;98649.41;5113902;28;20030;-47
2022/09/18 04:15:08;;;;;;;3.10;1.97;;;;;;;17.18;76.47;98657.47;5114272;28;20024;-46
2022/09/18 04:17:34;;;;;;;5.18;2.05;;;;;;;17.11;73.42;98670.38;5113347;28;20301;-46
2022/09/18 04:19:59;;;;;;;3.10;1.90;;;;;;;17.03;73.28;98685.16;5114368;28;20024;-47
2022/09/18 04:22:25;;;;;;;5.25;1.77;;;;;;;17.14;71.06;98694.03;5114371;28;20023;-46
2022/09/18 04:24:50;;;;;;;3.72;1.50;;;;;;;16.94;70.91;98701.03;5114101;28;20098;-44
2022/09/18 04:27:16;;;;;;;2.78;1.30;;;;;;;16.47;69.83;98704.78;5113806;28;20011;-46
2022/09/18 04:29:41;;;;;;;4.18;1.42;;;;;;;16.73;69.46;98719.00;5113792;28;20547;-45
2022/09/18 04:32:07;;;;;;;4.20;1.30;;;;;;;16.87;67.39;98723.88;5114046;28;20051;-44
2022/09/18 04:34:32;;;;;;;1.63;1.05;;;;;;;16.75;65.22;98733.00;5114304;28;20081;-43
2022/09/18 04:36:58;;;;;;;2.33;1.08;;;;;;;16.59;65.94;98740.22;5113866;28;20528;-43
2022/09/18 04:39:23;;;;;;;2.35;1.20;;;;;;;16.83;64.08;98744.28;5114402;28;20088;-43
2022/09/18 04:41:49;;;;;;;2.60;1.20;;;;;;;17.02;62.96;98750.75;5113995;28;20012;-44
2022/09/18 04:44:14;;;;;;;5.53;1.10;;;;;;;16.80;63.43;98741.03;5113784;27;20024;-43
2022/09/18 04:46:40;;;;;;;5.13;1.08;;;;;;;16.78;61.43;98755.81;5112443;28;20059;-44
2022/09/18 04:49:05;;;;;;;15.13;9.70;;;;;;;17.32;60.08;98768.72;5113711;28;20459;-44
2022/09/18 04:51:32;;;;;;;5.28;3.85;;;;;;;17.13;59.67;98765.78;5113790;28;20351;-44
2022/09/18 04:53:57;;;;;;;5.50;3.10;;;;;;;17.20;58.19;98770.91;5113734;28;20379;-44
2022/09/18 04:56:22;;;;;;;7.95;3.78;;;;;;;17.28;58.52;98772.22;5113865;28;20019;-44
2022/09/18 04:58:48;;;;;;;1.88;0.98;;;;;;;17.20;57.29;98784.34;5113237;28;20020;-46
2022/09/18 05:01:13;;;;;;;2.28;0.80;;;;;;;17.60;56.53;98788.03;5113412;28;20019;-44
2022/09/18 05:03:39;;;;;;;2.40;2.05;;;;;;;17.82;55.00;98793.09;5113151;28;20020;-44
2022/09/18 05:06:05;;;;;;;22.80;13.93;;;;;;;18.17;54.06;98799.44;5113421;28;20471;-43
2022/09/18 05:08:32;;;;;;;1.42;0.80;;;;;;;18.22;53.27;98809.38;5113304;28;20026;-43
2022/09/18 05:10:58;;;;;;;4.55;1.20;;;;;;;18.23;53.88;98824.47;5113413;28;20467;-43
2022/09/18 05:13:23;;;;;;;1.08;0.93;;;;;;;18.51;53.37;98812.22;5113048;28;20107;-44
2022/09/18 05:15:53;;;;;;;2.03;0.90;;;;;;;19.03;50.79;98813.50;5112861;28;20030;-44
2022/09/18 05:18:19;;;;;;;5.60;3.42;;;;;;;19.26;50.78;98821.94;5112253;28;20097;-47
2022/09/18 05:20:44;;;;;;;9.48;5.80;;;;;;;19.39;50.21;98823.19;5112443;28;20055;-43
2022/09/18 05:23:09;;;;;;;2.72;0.70;;;;;;;18.70;52.49;98833.94;5110696;28;20031;-45
2022/09/18 05:25:35;;;;;;;2.38;1.10;;;;;;;18.39;52.85;98822.50;5112415;28;20076;-44
2022/09/18 05:28:02;;;;;;;4.55;1.10;;;;;;;18.24;53.45;98839.53;5111848;28;20020;-45
2022/09/18 05:30:29;;;;;;;1.33;0.80;;;;;;;18.31;54.18;98840.03;5111569;28;20080;-43
2022/09/18 05:33:00;;;;;;;1.15;1.00;;;;;;;19.00;54.65;98851.81;5112296;28;20106;-42
2022/09/18 05:35:28;;;;;;;3.45;0.90;;;;;;;18.69;54.18;98843.88;5111914;28;20046;-42
2022/09/18 05:37:55;;;;;;;3.17;1.10;;;;;;;18.74;50.87;98848.44;5110236;28;20055;-43
2022/09/18 05:40:23;;;;;;;2.08;1.08;;;;;;;18.89;54.81;98855.66;5107536;27;20051;-36
2022/09/18 05:42:49;;;;;;;1.63;1.10;;;;;;;18.60;51.81;98858.22;5112342;27;20043;-37
2022/09/18 05:45:15;;;;;;;2.92;1.10;;;;;;;18.87;51.48;98829.00;5112007;28;20027;-37
2022/09/18 05:47:41;;;;;;;11.93;9.00;;;;;;;18.66;51.68;98860.63;5111691;28;20012;-43
2022/09/18 05:50:08;;;;;;;5.93;1.20;;;;;;;18.77;51.28;98861.34;5111532;28;20030;-45
2022/09/18 05:52:33;;;;;;;3.65;1.00;;;;;;;18.41;51.81;98849.97;5111620;28;20060;-44
2022/09/18 05:54:59;;;;;;;0.95;0.85;;;;;;;18.39;50.83;98861.03;5111967;28;20099;-43
2022/09/18 05:57:24;;;;;;;5.05;1.00;;;;;;;18.75;50.28;98867.03;5110750;28;20383;-43
2022/09/18 05:59:49;;;;;;;1.48;0.93;;;;;;;18.59;50.78;98878.19;5111822;28;20019;-43
2022/09/18 06:02:15;;;;;;;2.10;0.90;;;;;;;18.98;52.85;98886.31;5111200;28;20472;-46
2022/09/18 06:04:40;;;;;;;1.40;0.90;;;;;;;19.12;50.54;98884.63;5111463;28;20019;-46
2022/09/18 06:07:06;;;;;;;1.35;0.80;;;;;;;19.02;48.48;98894.66;5111547;28;20080;-43
2022/09/18 06:09:31;;;;;;;3.33;1.00;;;;;;;19.39;48.20;98896.81;5094624;28;20016;-45
2022/09/18 06:11:57;;;;;;;2.95;0.70;;;;;;;18.88;47.63;98905.25;5104618;28;20019;-45
2022/09/18 06:14:23;;;;;;;2.65;0.70;;;;;;;19.56;46.56;98912.59;5108669;28;20016;-45
2022/09/18 06:16:48;;;;;;;1.55;0.88;;;;;;;19.82;45.76;98924.03;5109815;28;20116;-44
2022/09/18 06:19:14;;;;;;;5.78;2.47;;;;;;;19.90;44.75;98933.41;5111363;28;20039;-45
2022/09/18 06:21:40;;;;;;;2.53;0.95;;;;;;;20.03;44.89;98924.63;5111364;28;20416;-47
2022/09/18 06:24:05;;;;;;;1.55;0.88;;;;;;;20.30;44.86;98926.75;5111047;28;20039;-44
2022/09/18 06:26:31;;;;;;;1.98;0.80;;;;;;;20.38;44.51;98946.94;5111507;28;20020;-44
2022/09/18 06:28:56;;;;;;;2.40;1.05;;;;;;;20.42;44.38;98944.47;5111752;28;20050;-42
2022/09/18 06:31:22;;;;;;;4.35;1.40;;;;;;;20.72;42.58;98942.53;5111762;28;20046;-44
2022/09/18 06:33:48;;;;;;;1.30;0.80;;;;;;;20.37;42.86;98950.75;5110941;28;20027;-44
2022/09/18 06:36:13;;;;;;;3.45;1.05;;;;;;;20.25;44.34;98953.81;5111507;28;20084;-44
2022/09/18 06:38:39;;;;;;;3.92;0.90;;;;;;;20.49;42.65;98942.22;5111585;28;20072;-43
2022/09/18 06:41:05;;;;;;;3.88;1.10;;;;;;;19.98;43.18;98959.78;5111043;28;20028;-42
2022/09/18 06:43:30;;;;;;;8.05;1.85;;;;;;;20.09;42.77;98955.88;5110720;28;20027;-46
2022/09/18 06:45:56;;;;;;;4.80;1.20;;;;;;;19.98;42.79;98962.47;5108811;28;20420;-45
2022/09/18 06:48:23;;;;;;;2.58;1.02;;;;;;;19.53;42.77;98946.38;5090316;28;20028;-43
2022/09/18 06:50:54;;;;;;;1.35;1.10;;;;;;;19.73;42.64;98961.59;5090674;28;20562;-43
2022/09/18 06:53:20;;;;;;;9.05;1.30;;;;;;;19.96;42.81;98963.84;5104199;28;20102;-45
2022/09/18 06:55:47;;;;;;;1.92;1.05;;;;;;;20.06;41.91;98959.13;5111338;28;20027;-43
2022/09/18 06:58:16;;;;;;;6.95;1.10;;;;;;;20.39;42.06;98966.66;5110990;28;20031;-47
2022/09/18 07:00:42;;;;;;;5.85;1.40;;;;;;;20.27;42.14;98973.25;5110750;28;20038;-45
2022/09/18 07:03:08;;;;;;;5.43;3.13;;;;;;;19.94;43.21;98972.22;5109941;28;20080;-44
2022/09/18 07:05:41;;;;;;;1.90;1.30;;;;;;;19.78;43.95;98989.63;5110134;28;20031;-45
2022/09/18 07:08:06;;;;;;;3.90;1.30;;;;;;;19.24;44.48;98985.94;5110499;28;20020;-45
2022/09/18 07:10:32;;;;;;;3.75;1.50;;;;;;;18.90;45.57;98998.22;5110531;28;20027;-43
2022/09/18 07:12:58;;;;;;;4.65;1.55;;;;;;;18.82;46.21;98989.94;5110631;28;20370;-44
2022/09/18 07:15:25;;;;;;;4.15;1.70;;;;;;;18.91;46.18;99001.75;5110047;28;20433;-44
2022/09/18 07:17:54;;;;;;;4.07;1.50;;;;;;;18.65;46.34;98995.63;5109655;28;20380;-45
2022/09/18 07:20:20;;;;;;;6.72;1.70;;;;;;;18.61;45.62;98999.94;5110693;28;20051;-45
2022/09/18 07:22:57;;;;;;;3.50;1.80;;;;;;;18.48;45.45;98987.84;5110099;28;20036;-47
2022/09/18 07:25:24;;;;;;;3.25;1.50;;;;;;;18.88;45.38;98991.50;5104918;28;20443;-43
2022/09/18 07:27:50;;;;;;;5.80;1.70;;;;;;;18.63;45.55;98992.38;5101993;28;20015;-44
2022/09/18 07:30:16;;;;;;;4.30;1.55;;;;;;;18.76;46.06;99008.78;5110166;28;20018;-37
2022/09/18 07:32:42;;;;;;;2.42;1.52;;;;;;;18.87;46.14;98993.41;5110140;28;20032;-37
2022/09/18 07:35:09;;;;;;;5.68;1.70;;;;;;;18.89;46.04;99003.91;5110595;28;20039;-37
2022/09/18 07:37:34;;;;;;;2.08;1.30;;;;;;;19.29;45.75;99011.00;5110033;28;20028;-42
2022/09/18 07:40:00;;;;;;;1.77;1.48;;;;;;;19.49;45.11;99011.94;5109840;28;20110;-45
2022/09/18 07:42:25;;;;;;;2.28;1.33;;;;;;;19.54;44.58;99012.72;5110165;28;20046;-43
2022/09/18 07:44:52;;;;;;;2.97;1.40;;;;;;;19.47;44.27;99023.00;5110598;28;20106;-44
2022/09/18 07:47:18;;;;;;;1.90;1.30;;;;;;;19.63;43.87;99028.31;5110368;28;20035;-44
2022/09/18 07:49:44;;;;;;;3.58;1.42;;;;;;;20.55;42.89;99037.56;5110088;28;20028;-43
2022/09/18 07:52:09;;;;;;;4.47;1.50;;;;;;;20.07;42.63;99041.78;5110245;28;20016;-44
2022/09/18 07:54:35;;;;;;;3.38;1.40;;;;;;;20.37;42.28;99041.78;5110498;28;20411;-37
2022/09/18 07:57:01;;;;;;;1.50;1.15;;;;;;;20.74;41.55;99037.66;5110457;28;20076;-36
2022/09/18 07:59:26;;;;;;;2.03;1.40;;;;;;;20.34;42.52;99043.16;5109898;28;20097;-37
2022/09/18 08:01:54;;;;;;;1.77;1.25;;;;;;;20.22;42.94;99065.16;5110291;28;20025;-36
2022/09/18 08:04:22;;;;;;;2.55;1.20;;;;;;;19.46;43.81;99066.47;5110007;28;20123;-36
2022/09/18 08:06:52;;;;;;;1.45;1.33;;;;;;;19.46;43.96;99067.28;5109775;28;20051;-37
2022/09/18 08:09:18;;;;;;;4.40;1.30;;;;;;;18.89;44.41;99060.53;5109939;28;20023;-37
2022/09/18 08:11:43;;;;;;;2.05;1.30;;;;;;;18.87;44.19;99074.28;5110207;28;20016;-38
2022/09/18 08:14:09;;;;;;;1.58;1.20;;;;;;;19.18;43.63;99054.47;5109448;28;20076;-37
2022/09/18 08:16:35;;;;;;;4.40;1.30;;;;;;;18.52;43.73;99069.72;5108281;28;20027;-36
2022/09/18 08:19:00;;;;;;;1.70;1.17;;;;;;;18.38;43.53;99066.78;5107988;28;20031;-37
2022/09/18 08:21:28;;;;;;;2.03;1.23;;;;;;;18.08;44.53;99079.19;5109006;28;20039;-37
2022/09/18 08:23:54;;;;;;;3.33;1.40;;;;;;;17.70;45.55;99072.38;5111761;28;20055;-37
2022/09/18 08:26:19;;;;;;;3.67;1.17;;;;;;;17.36;46.34;99054.84;5111620;28;20027;-37
2022/09/18 08:28:46;;;;;;;2.03;1.25;;;;;;;17.20;46.54;99080.84;5112107;28;20119;-37
2022/09/18 08:31:11;;;;;;;7.93;1.55;;;;;;;17.10;47.09;99075.44;5112031;28;20039;-37
2022/09/18 08:33:37;;;;;;;6.50;1.25;;;;;;;17.08;47.11;99072.22;5112112;28;20028;-37
2022/09/18 08:36:02;;;;;;;3.38;1.38;;;;;;;17.09;47.98;99064.97;5112514;28;20030;-38
2022/09/18 08:38:28;;;;;;;1.85;1.17;;;;;;;17.15;46.96;99069.28;5111862;28;20035;-36
2022/09/18 08:41:06;;;;;;;1.55;1.23;;;;;;;17.64;46.32;99054.63;5113904;28;20499;-36
2022/09/18 08:43:51;;;;;;;2.13;0.90;;;;;;;17.53;46.88;99070.72;5111710;28;20039;-37
2022/09/18 08:46:25;;;;;;;3.15;1.17;;;;;;;17.31;46.96;99070.16;5112571;28;20031;-38
2022/09/18 08:49:19;;;;;;;3.25;1.35;;;;;;;17.62;46.43;99076.41;5112195;28;20102;-37
2022/09/18 08:51:56;;;;;;;5.05;1.33;;;;;;;17.67;46.02;99068.38;5111395;28;20092;-37
2022/09/18 08:54:36;;;;;;;2.53;1.17;;;;;;;17.74;45.04;99062.72;5112175;28;20479;-37
2022/09/18 08:57:24;;;;;;;;;;;;;;;17.72;44.48;99067.56;5113173;28;20023;-37
2022/09/18 08:59:57;;;;;;;8.00;1.08;;;;;;;17.54;44.84;99061.59;5112551;28;19934;-38
2022/09/18 09:02:26;;;;;;;2.83;1.30;;;;;;;17.37;44.97;99063.72;5111797;28;20036;-37
2022/09/18 09:04:56;;;;;;;2.60;0.90;;;;;;;17.36;45.71;99073.69;5112393;28;20051;-37
2022/09/18 09:07:42;;;;;;;2.17;1.20;;;;;;;17.79;45.54;99058.16;5112275;27;20039;-36
2022/09/18 09:10:22;;;;;;;1.70;1.35;;;;;;;18.41;44.19;99078.91;5112769;28;20031;-38
2022/09/18 09:12:56;;;;;;;;;;;;;;;18.27;45.20;99071.38;5111966;28;20031;-37
2022/09/18 09:15:26;;;;;;;4.07;1.80;;;;;;;18.11;45.43;99057.13;5111855;28;19907;-37
2022/09/18 09:18:06;;;;;;;3.47;1.17;;;;;;;18.14;44.88;99055.75;5090377;28;20135;-37
2022/09/18 09:20:49;;;;;;;2.85;1.20;;;;;;;18.59;44.15;99069.47;5090843;28;20112;-36
2022/09/18 09:23:21;;;;;;;2.92;1.27;;;;;;;18.75;43.44;99047.59;5090692;28;20063;-37
2022/09/18 09:26:00;;;;;;;4.00;1.20;;;;;;;18.88;42.15;99075.88;5090710;28;20024;-37
2022/09/18 09:28:29;;;;;;;3.00;1.42;;;;;;;18.70;43.26;99071.06;5090580;28;20464;-36
2022/09/18 09:31:00;;;;;;;2.97;1.17;;;;;;;18.60;42.17;99079.97;5090853;28;20024;-36
2022/09/18 09:33:39;;;;;;;1.30;0.98;;;;;;;18.99;41.66;99087.44;5090716;28;20050;-36
2022/09/18 09:36:09;;;;;;;1.02;0.93;;;;;;;18.82;42.10;99079.66;5090567;28;20067;-38
2022/09/18 09:38:45;;;;;;;4.28;1.50;;;;;;;18.94;42.63;99073.97;5090710;28;20492;-37
2022/09/18 09:41:35;;;;;;;5.40;1.70;;;;;;;19.75;41.38;99087.38;5109293;28;20030;-38
2022/09/18 09:44:19;;;;;;;6.35;3.15;;;;;;;20.11;39.90;99077.13;5110886;28;20043;-37
2022/09/18 09:47:23;;;;;;;3.25;1.88;;;;;;;19.97;39.70;99079.69;5111180;28;20032;-37
2022/09/18 09:50:07;;;;;;;4.90;1.45;;;;;;;20.23;39.86;99082.97;5027347;28;20591;-37
2022/09/18 09:52:35;;;;;;;2.58;1.40;;;;;;;19.86;39.42;99095.13;5083443;28;20419;-38
2022/09/18 09:55:19;;;;;;;1.10;1.00;;;;;;;19.59;39.21;99087.44;5090819;28;20114;-38
2022/09/18 09:58:09;;;;;;;4.25;1.88;;;;;;;19.31;39.52;99095.13;5090634;28;20028;-37
2022/09/18 10:01:14;;;;;;;3.92;1.55;;;;;;;19.48;39.03;99102.88;5090898;28;20032;-36
2022/09/18 10:03:52;;;;;;;2.17;1.60;;;;;;;19.44;39.73;99103.69;5090659;28;20073;-37
2022/09/18 10:06:26;;;;;;;2.60;1.40;;;;;;;19.99;38.49;99104.50;5090441;28;20028;-37
2022/09/18 10:09:09;;;;;;;3.78;1.60;;;;;;;19.97;39.38;99095.06;5103051;28;20028;-37
2022/09/18 10:11:38;;;;;;;4.90;1.60;;;;;;;20.02;39.00;99089.63;5111062;28;20490;-37
2022/09/18 10:14:18;;;;;;;5.35;1.60;;;;;;;19.97;39.12;99100.44;5110702;28;20023;-37
2022/09/18 10:16:50;;;;;;;2.45;1.73;;;;;;;20.38;40.28;99106.34;5110522;28;20122;-38
2022/09/18 10:19:18;;;;;;;4.22;1.50;;;;;;;19.86;39.79;99107.84;5110683;28;20062;-38
2022/09/18 10:21:44;;;;;;;4.38;1.60;;;;;;;19.53;39.58;99105.56;5110946;28;20406;-37
2022/09/18 10:24:28;;;;;;;5.07;1.30;;;;;;;19.40;39.18;99105.34;5110658;28;20471;-37
2022/09/18 10:27:00;;;;;;;4.20;2.22;;;;;;;19.53;39.41;99092.06;5110834;28;20050;-37
2022/09/18 10:29:26;;;;;;;4.45;1.20;;;;;;;19.46;39.63;99105.06;5110565;28;20026;-37
2022/09/18 10:31:57;;;;;;;1.83;1.30;;;;;;;19.40;39.43;99114.25;5110726;28;20031;-37
2022/09/18 10:34:39;;;;;;;3.15;1.20;;;;;;;19.58;39.63;99120.09;5110836;28;20023;-37
2022/09/18 10:37:05;;;;;;;3.15;1.50;;;;;;;19.73;39.18;99104.66;5110871;28;20102;-37
2022/09/18 10:39:35;;;;;;;3.05;1.38;;;;;;;19.95;38.77;99108.03;5108910;28;20522;-37
2022/09/18 10:42:04;;;;;;;2.90;1.40;;;;;;;20.25;38.11;99105.09;5108523;28;20059;-37
2022/09/18 10:44:34;;;;;;;2.63;1.40;;;;;;;20.34;37.27;99096.41;5110051;28;20023;-44
2022/09/18 10:47:07;;;;;;;3.63;1.40;;;;;;;20.49;38.52;99104.38;5110666;28;20039;-37
2022/09/18 10:49:39;;;;;;;1.77;1.40;;;;;;;20.56;37.50;99106.72;5109823;28;20491;-36
2022/09/18 10:52:20;;;;;;;3.97;1.35;;;;;;;20.46;36.58;99118.44;5109688;28;20177;-42
2022/09/18 10:55:04;;;;;;;3.63;1.70;;;;;;;20.81;36.15;99111.94;5110043;28;20038;-37
2022/09/18 10:57:34;;;;;;;3.42;1.50;;;;;;;20.86;35.89;99103.75;5110066;28;20027;-38
2022/09/18 11:00:01;;;;;;;4.38;1.40;;;;;;;20.57;36.47;99092.94;5110091;28;20419;-38
2022/09/18 11:02:36;;;;;;;4.35;1.50;;;;;;;20.72;36.83;99124.44;5109701;28;20506;-37
2022/09/18 11:05:02;;;;;;;2.17;1.60;;;;;;;20.92;36.36;99099.09;5110332;28;20113;-37
2022/09/18 11:07:28;;;;;;;7.03;1.98;;;;;;;20.84;37.31;99107.84;5110413;28;20107;-46
2022/09/18 11:09:54;;;;;;;5.63;2.00;;;;;;;20.97;36.37;99114.47;5110362;28;20031;-44
2022/09/18 11:12:23;;;;;;;5.68;1.70;;;;;;;21.29;36.11;99095.69;5110009;28;20423;-44
2022/09/18 11:15:00;;;;;;;;;;;;;;;21.13;36.65;99105.06;5110250;28;20069;-43
2022/09/18 11:17:30;;;;;;;2.40;1.63;;;;;;;21.28;37.01;99104.91;5107951;28;19922;-43
2022/09/18 11:19:58;;;;;;;2.67;1.80;;;;;;;21.82;36.34;99124.50;5107848;28;20039;-43
2022/09/18 11:22:33;;;;;;;4.88;1.35;;;;;;;21.55;35.66;99118.91;5108716;28;20019;-44
2022/09/18 11:25:26;;;;;;;3.22;1.50;;;;;;;21.71;35.77;99128.47;5109017;28;20331;-43
2022/09/18 11:27:57;;;;;;;1.92;1.42;;;;;;;21.42;36.04;99137.47;5106616;28;20043;-43
2022/09/18 11:30:29;;;;;;;2.75;1.50;;;;;;;21.48;35.54;99141.75;5110013;28;20027;-43
2022/09/18 11:33:04;;;;;;;5.03;1.33;;;;;;;21.52;34.68;99141.97;5109608;28;20125;-42
2022/09/18 11:35:31;;;;;;;4.18;1.20;;;;;;;21.54;34.89;99134.38;5109810;28;20051;-37
2022/09/18 11:38:05;;;;;;;1.55;1.10;;;;;;;22.13;34.07;99118.63;5109451;28;20030;-37
2022/09/18 11:40:50;;;;;;;7.88;1.30;;;;;;;21.71;34.63;99138.50;5109520;28;20051;-43
2022/09/18 11:43:22;;;;;;;5.30;1.30;;;;;;;22.00;34.25;99151.88;5109027;28;20154;-44
2022/09/18 11:46:06;;;;;;;1.60;1.40;;;;;;;21.70;34.68;99150.41;5109410;28;20726;-43
2022/09/18 11:48:52;;;;;;;4.55;1.23;;;;;;;21.33;35.28;99160.06;5109060;28;20020;-44